Ana Sayfa
METAR-TAF:

METAR-TAF

Havaalanları :

Mykonos, Yunanistan

Enlem: 37-26-09N, Boylam: 025-20-45E, yükseklik: 123 m

Güncel hava durumu gözlemi

Rapor saat 12:20 UTC de 3 saat ve 32 dakika önce yapıldı.
Rüzgar kuzeybatıdan 8 kt
Sıcaklık 16°C
Nem 55%
Basınç 1011 hPa
Görüş mesafesi 10 km veya daha fazla
2000 ft yükseklikte az bulutlu

METAR: LGMK 021220Z 32008KT 9999 FEW020 16/07 Q1011

Saat: 18:52 (15:52 UTC)

Tahmin

Rapor saat 14:00 UTC de 1 saat ve 52 dakika önce yapıldı.
Ayın 02'si saat 15 UTC'den ayın 02'si saat 24 UTC'ye kadar geçerli Tahmin
Rüzgar kuzey/kuzeybatıdan 15 kt
Görüş mesafesi 10 km veya daha fazla
2000 ft yükseklikte az bulutlu

TAF: LGMK 021400Z 0215/0224 34015KT 9999 FEW020

4.000'den fazla havaalanı için hava durumu gözlemleri ve tahminleri (METAR ve TAF raporları).

Kullanılabilir istasyonlar harita üzerinde sarı ve kırmızı noktalarla gösterilir.

İstasyonun adını görmek için fareyi noktanın üzerinde gezdirin.

Sonrasında hava gözlem ve tahminlerini görmek için tıklayın.

Haritayı değiştirmek için: yaklaştırmak için siyah artı işaretli yeşil düğmeye ve uzaklaştırmak için de eksi işaretli düğmeye hızla tıklayın; bitişik haritalar için yeşil okları kullanın.


METAR-TAF: